createdAt,value
2018-07-19T00:00:47.489Z,28.10
2018-07-19T00:03:15.302Z,31.00
2018-07-19T00:05:43.051Z,28.10
2018-07-19T00:08:10.895Z,28.10
2018-07-19T00:10:38.639Z,28.00
2018-07-19T00:13:06.354Z,28.10
2018-07-19T00:15:34.096Z,28.10
2018-07-19T00:18:01.872Z,28.00
2018-07-19T00:20:29.588Z,27.90
2018-07-19T00:22:57.374Z,27.70
2018-07-19T00:25:25.083Z,27.70
2018-07-19T00:27:52.965Z,27.80
2018-07-19T00:30:20.700Z,27.90
2018-07-19T00:32:48.418Z,27.80
2018-07-19T00:35:16.307Z,27.90
2018-07-19T00:37:44.054Z,27.90
2018-07-19T00:40:12.057Z,27.80
2018-07-19T00:42:39.877Z,27.70
2018-07-19T00:45:07.611Z,27.50
2018-07-19T00:47:35.433Z,27.50
2018-07-19T00:50:03.606Z,27.50
2018-07-19T00:52:31.345Z,27.60
2018-07-19T00:54:59.139Z,27.60
2018-07-19T00:57:26.893Z,27.60
2018-07-19T00:59:54.578Z,27.10
2018-07-19T01:02:22.391Z,27.20
2018-07-19T01:04:50.162Z,27.00
2018-07-19T01:07:17.929Z,26.90
2018-07-19T01:09:45.646Z,27.10
2018-07-19T01:12:13.470Z,26.70
2018-07-19T01:14:41.187Z,26.80
2018-07-19T01:17:08.917Z,26.80
2018-07-19T01:19:36.669Z,26.80
2018-07-19T01:22:04.473Z,26.80
2018-07-19T01:24:32.204Z,26.60
2018-07-19T01:26:59.954Z,26.60
2018-07-19T01:29:27.739Z,26.60
2018-07-19T01:31:55.451Z,26.70
2018-07-19T01:34:23.274Z,26.60
2018-07-19T01:36:51.046Z,26.60
2018-07-19T01:39:18.826Z,26.70
2018-07-19T01:42:34.897Z,26.90
2018-07-19T01:45:02.625Z,26.70
2018-07-19T01:47:31.419Z,26.50
2018-07-19T01:49:59.261Z,26.50
2018-07-19T01:52:26.998Z,26.50
2018-07-19T01:54:54.742Z,26.50
2018-07-19T01:57:22.482Z,26.30
2018-07-19T01:59:50.491Z,26.80
2018-07-19T02:02:18.505Z,26.60
2018-07-19T02:04:46.365Z,26.40
2018-07-19T02:07:14.224Z,26.40
2018-07-19T02:09:42.150Z,26.40
2018-07-19T02:12:10.074Z,26.30
2018-07-19T02:14:37.820Z,26.30
2018-07-19T02:17:05.806Z,26.10
2018-07-19T02:19:33.562Z,26.00
2018-07-19T02:22:01.393Z,26.20
2018-07-19T02:24:29.130Z,26.20
2018-07-19T02:26:56.837Z,26.30
2018-07-19T02:29:24.537Z,26.20
2018-07-19T02:31:52.281Z,26.20
2018-07-19T02:34:20.104Z,26.20
2018-07-19T02:36:47.866Z,26.10
2018-07-19T02:39:15.794Z,26.10
2018-07-19T02:41:43.552Z,26.10
2018-07-19T02:44:12.412Z,26.10
2018-07-19T02:46:41.173Z,26.10
2018-07-19T02:49:09.174Z,26.10
2018-07-19T02:51:37.644Z,26.10
2018-07-19T02:54:05.458Z,26.30
2018-07-19T02:56:34.141Z,26.30
2018-07-19T02:59:02.027Z,26.30
2018-07-19T03:01:29.770Z,26.30
2018-07-19T03:03:57.516Z,26.30
2018-07-19T03:06:25.312Z,26.10
2018-07-19T03:08:53.134Z,26.10
2018-07-19T03:11:21.055Z,26.00
2018-07-19T03:13:48.883Z,26.20
2018-07-19T03:16:16.872Z,26.10
2018-07-19T03:18:44.634Z,26.20
2018-07-19T03:21:12.447Z,26.20
2018-07-19T03:23:40.501Z,26.10
2018-07-19T03:26:08.242Z,26.10
2018-07-19T03:28:35.961Z,26.20
2018-07-19T03:31:03.814Z,25.50
2018-07-19T03:33:31.642Z,25.80
2018-07-19T03:35:59.533Z,25.60
2018-07-19T03:38:27.434Z,25.80
2018-07-19T03:40:56.265Z,25.60
2018-07-19T03:43:24.219Z,25.70
2018-07-19T03:45:52.178Z,25.90
2018-07-19T03:48:20.005Z,25.80
2018-07-19T03:50:47.757Z,25.60
2018-07-19T03:53:15.596Z,25.50
2018-07-19T03:55:43.333Z,25.00
2018-07-19T03:58:11.059Z,24.80
2018-07-19T04:00:38.824Z,25.00
2018-07-19T04:03:06.628Z,24.90
2018-07-19T04:05:34.393Z,24.80
2018-07-19T04:08:02.112Z,24.70
2018-07-19T04:10:29.819Z,24.50
2018-07-19T04:12:57.577Z,24.40
2018-07-19T04:15:25.301Z,24.50
2018-07-19T04:17:56.909Z,24.70
2018-07-19T04:20:25.861Z,25.00
2018-07-19T04:22:54.407Z,25.00
2018-07-19T04:25:22.745Z,25.10
2018-07-19T04:27:50.667Z,25.20
2018-07-19T04:30:18.497Z,25.20
2018-07-19T04:32:46.283Z,25.20
2018-07-19T04:35:14.021Z,25.20
2018-07-19T04:40:09.564Z,24.90
2018-07-19T04:42:37.306Z,24.70
2018-07-19T04:45:05.481Z,24.70
2018-07-19T04:47:33.269Z,24.90
2018-07-19T04:50:00.962Z,24.80
2018-07-19T04:52:28.752Z,24.60
2018-07-19T04:54:56.537Z,24.40
2018-07-19T04:57:24.405Z,24.40
2018-07-19T04:59:52.155Z,24.60
2018-07-19T05:02:20.277Z,24.70
2018-07-19T05:04:48.002Z,24.90
2018-07-19T05:07:16.055Z,24.60
2018-07-19T05:09:43.772Z,24.90
2018-07-19T05:12:11.519Z,24.80
2018-07-19T05:14:39.254Z,25.10
2018-07-19T05:17:06.955Z,25.20
2018-07-19T05:19:34.678Z,25.40
2018-07-19T05:22:02.433Z,25.50
2018-07-19T05:24:30.159Z,25.50
2018-07-19T05:26:57.938Z,25.50
2018-07-19T05:29:25.646Z,25.40
2018-07-19T05:31:53.421Z,25.50
2018-07-19T05:34:21.185Z,25.50
2018-07-19T05:36:49.115Z,25.30
2018-07-19T05:39:16.946Z,25.30
2018-07-19T05:41:44.763Z,27.60
2018-07-19T05:44:12.663Z,25.70
2018-07-19T05:46:40.393Z,26.00
2018-07-19T05:51:35.946Z,26.20
2018-07-19T05:54:03.739Z,26.30
2018-07-19T05:56:31.492Z,26.30
2018-07-19T05:58:59.214Z,26.50
2018-07-19T06:01:26.965Z,26.60
2018-07-19T06:03:54.770Z,27.40
2018-07-19T06:06:22.503Z,27.00
2018-07-19T06:08:50.291Z,27.00
2018-07-19T06:11:18.143Z,27.10
2018-07-19T06:13:45.858Z,27.40
2018-07-19T06:16:13.716Z,27.50
2018-07-19T06:18:41.688Z,27.30
2018-07-19T06:21:09.349Z,27.40
2018-07-19T06:23:37.070Z,27.50
2018-07-19T06:26:04.938Z,27.80
2018-07-19T06:28:32.685Z,28.10
2018-07-19T06:31:00.573Z,28.10
2018-07-19T06:33:28.497Z,28.30
2018-07-19T06:35:56.590Z,28.40
2018-07-19T06:38:24.306Z,28.50
2018-07-19T06:40:52.029Z,28.80
2018-07-19T06:43:19.725Z,29.10
2018-07-19T06:45:47.464Z,29.40
2018-07-19T06:48:15.190Z,29.50
2018-07-19T06:50:43.007Z,29.40
2018-07-19T06:53:10.776Z,29.40
2018-07-19T06:55:38.498Z,29.50
2018-07-19T06:58:06.245Z,29.60
2018-07-19T07:00:33.975Z,29.80
2018-07-19T07:03:01.858Z,30.00
2018-07-19T07:05:29.589Z,30.10
2018-07-19T07:07:57.373Z,30.20
2018-07-19T07:12:52.777Z,30.60
2018-07-19T07:15:20.551Z,30.60
2018-07-19T07:17:48.245Z,30.90
2018-07-19T07:20:16.077Z,30.60
2018-07-19T07:22:43.795Z,30.50
2018-07-19T07:25:11.518Z,30.70
2018-07-19T07:27:39.247Z,30.60
2018-07-19T07:30:06.990Z,30.30
2018-07-19T07:32:34.784Z,30.40
2018-07-19T07:35:02.559Z,30.60
2018-07-19T07:37:30.290Z,31.00
2018-07-19T07:39:58.041Z,31.20
2018-07-19T07:42:25.725Z,31.30
2018-07-19T07:44:53.430Z,31.40
2018-07-19T07:47:21.133Z,31.50
2018-07-19T07:49:48.880Z,31.60
2018-07-19T07:52:16.614Z,31.70
2018-07-19T07:54:44.348Z,31.90
2018-07-19T07:57:12.093Z,31.90
2018-07-19T07:59:40.082Z,32.30
2018-07-19T08:02:08.045Z,32.90
2018-07-19T08:04:35.767Z,33.00
2018-07-19T08:07:03.537Z,33.10
2018-07-19T08:09:31.836Z,33.30
2018-07-19T08:14:27.311Z,34.00
2018-07-19T08:16:55.004Z,34.50
2018-07-19T08:19:22.713Z,34.80
2018-07-19T08:21:50.436Z,35.00
2018-07-19T08:24:18.200Z,34.50
2018-07-19T08:26:45.934Z,34.60
2018-07-19T08:29:13.654Z,34.60
2018-07-19T08:31:41.438Z,34.90
2018-07-19T08:34:09.211Z,36.90
2018-07-19T08:36:36.953Z,35.40
2018-07-19T08:39:08.968Z,35.80
2018-07-19T08:41:36.703Z,36.10
2018-07-19T08:44:04.505Z,36.30
2018-07-19T08:46:32.283Z,36.50
2018-07-19T08:49:00.059Z,39.10
2018-07-19T08:53:55.986Z,36.30
2018-07-19T08:56:23.885Z,36.40
2018-07-19T08:58:51.593Z,36.50
2018-07-19T09:01:19.319Z,37.00
2018-07-19T09:03:47.026Z,36.80
2018-07-19T09:06:14.774Z,37.20
2018-07-19T09:08:42.470Z,37.70
2018-07-19T09:11:10.187Z,37.80
2018-07-19T09:13:38.695Z,38.10
2018-07-19T09:16:06.398Z,38.30
2018-07-19T09:18:34.119Z,38.60
2018-07-19T09:21:01.830Z,38.80
2018-07-19T09:23:29.563Z,39.10
2018-07-19T09:25:57.279Z,38.40
2018-07-19T09:28:25.108Z,38.70
2018-07-19T09:30:52.836Z,39.10
2018-07-19T09:33:20.875Z,39.70
2018-07-19T09:35:48.582Z,39.70
2018-07-19T09:38:16.353Z,40.00
2018-07-19T09:40:44.966Z,40.00
2018-07-19T09:43:13.496Z,39.70
2018-07-19T09:45:41.472Z,40.00
2018-07-19T09:48:09.223Z,39.80
2018-07-19T09:50:38.001Z,40.00
2018-07-19T09:53:06.020Z,40.30
2018-07-19T09:55:33.788Z,40.50
2018-07-19T10:00:34.975Z,40.30
2018-07-19T10:03:02.722Z,40.70
2018-07-19T10:05:30.487Z,41.00
2018-07-19T10:07:58.187Z,41.80
2018-07-19T10:10:25.898Z,41.60
2018-07-19T10:12:53.662Z,41.70
2018-07-19T10:15:21.416Z,41.90
2018-07-19T10:17:49.141Z,41.90
2018-07-19T10:20:16.902Z,41.30
2018-07-19T10:22:44.578Z,41.80
2018-07-19T10:25:12.295Z,41.40
2018-07-19T10:27:40.050Z,40.30
2018-07-19T10:30:08.096Z,39.80
2018-07-19T10:32:35.931Z,40.30
2018-07-19T10:35:03.935Z,41.00
2018-07-19T10:37:31.731Z,41.90
2018-07-19T10:39:59.455Z,41.80
2018-07-19T10:42:27.490Z,41.60
2018-07-19T10:44:55.206Z,41.20
2018-07-19T10:47:22.894Z,40.60
2018-07-19T10:49:50.609Z,41.20
2018-07-19T10:52:18.325Z,42.10
2018-07-19T10:54:46.973Z,42.30
2018-07-19T10:57:14.771Z,42.80
2018-07-19T10:59:42.492Z,43.10
2018-07-19T11:02:11.372Z,43.40
2018-07-19T11:04:39.147Z,43.30
2018-07-19T11:07:07.264Z,43.60
2018-07-19T11:09:35.167Z,43.90
2018-07-19T11:12:02.877Z,43.20
2018-07-19T11:14:30.797Z,42.00
2018-07-19T11:16:58.685Z,41.20
2018-07-19T11:19:26.402Z,40.80
2018-07-19T11:21:54.093Z,39.60
2018-07-19T11:24:21.862Z,39.20
2018-07-19T11:26:49.535Z,39.80
2018-07-19T11:29:17.332Z,39.70
2018-07-19T11:31:45.282Z,39.20
2018-07-19T11:34:13.001Z,38.70
2018-07-19T11:36:40.714Z,38.80
2018-07-19T11:40:38.029Z,38.60
2018-07-19T11:43:05.754Z,38.60
2018-07-19T11:45:33.475Z,38.80
2018-07-19T11:48:01.206Z,39.40
2018-07-19T11:50:28.992Z,39.80
2018-07-19T11:52:56.718Z,41.10
2018-07-19T11:55:24.493Z,41.10
2018-07-19T11:57:52.519Z,41.60
2018-07-19T12:00:21.041Z,42.30
2018-07-19T12:02:49.789Z,42.70
2018-07-19T12:05:17.979Z,42.60
2018-07-19T12:07:45.987Z,43.10
2018-07-19T12:10:13.816Z,43.40
2018-07-19T12:12:41.579Z,42.80
2018-07-19T12:15:09.440Z,42.90
2018-07-19T12:17:37.247Z,43.10
2018-07-19T12:20:05.371Z,43.00
2018-07-19T12:22:34.006Z,43.00
2018-07-19T12:25:01.795Z,43.00
2018-07-19T12:27:29.618Z,42.60
2018-07-19T12:29:57.543Z,41.50
2018-07-19T12:32:25.477Z,41.10
2018-07-19T12:34:53.322Z,41.40
2018-07-19T12:37:21.388Z,41.10
2018-07-19T12:39:49.853Z,40.90
2018-07-19T12:42:17.645Z,41.40
2018-07-19T12:44:45.361Z,41.40
2018-07-19T12:47:13.142Z,41.50
2018-07-19T12:49:40.929Z,41.30
2018-07-19T12:52:08.679Z,41.00
2018-07-19T12:54:36.310Z,41.00
2018-07-19T12:57:04.127Z,40.80
2018-07-19T12:59:31.754Z,41.20
2018-07-19T13:01:59.461Z,40.40
2018-07-19T13:04:27.138Z,40.20
2018-07-19T13:06:54.879Z,40.10
2018-07-19T13:09:22.634Z,40.30
2018-07-19T13:11:51.308Z,40.40
2018-07-19T13:14:19.127Z,40.40
2018-07-19T13:16:46.844Z,40.70
2018-07-19T13:19:14.631Z,41.50
2018-07-19T13:21:42.349Z,41.00
2018-07-19T13:24:10.107Z,41.00
2018-07-19T13:26:37.887Z,41.30
2018-07-19T13:29:05.714Z,41.00
2018-07-19T13:31:33.483Z,40.80
2018-07-19T13:34:01.206Z,40.90
2018-07-19T13:36:28.991Z,41.20
2018-07-19T13:38:56.999Z,41.60
2018-07-19T13:44:05.061Z,41.30
2018-07-19T13:46:32.817Z,43.00
2018-07-19T13:49:00.534Z,41.10
2018-07-19T13:51:28.275Z,40.80
2018-07-19T13:54:25.324Z,40.10
2018-07-19T14:01:28.054Z,42.30
2018-07-19T14:03:55.863Z,41.90
2018-07-19T14:06:23.630Z,42.30
2018-07-19T14:08:51.325Z,42.60
2018-07-19T14:11:19.139Z,42.60
2018-07-19T14:13:47.473Z,42.60
2018-07-19T14:16:15.319Z,42.20
2018-07-19T14:18:43.053Z,42.00
2018-07-19T14:21:10.745Z,42.40
2018-07-19T14:23:38.468Z,42.40
2018-07-19T14:26:06.287Z,42.90
2018-07-19T14:28:33.993Z,43.40
2018-07-19T14:31:01.827Z,43.50
2018-07-19T14:33:29.541Z,43.60
2018-07-19T14:35:57.294Z,42.80
2018-07-19T14:38:25.136Z,42.70
2018-07-19T14:40:52.828Z,42.70
2018-07-19T14:43:20.518Z,43.30
2018-07-19T14:45:48.226Z,43.20
2018-07-19T14:48:16.039Z,43.00
2018-07-19T14:50:43.793Z,43.00
2018-07-19T14:53:11.533Z,42.90
2018-07-19T14:55:39.305Z,42.60
2018-07-19T15:00:34.777Z,42.50
2018-07-19T15:03:02.643Z,42.80
2018-07-19T15:05:30.409Z,43.00
2018-07-19T15:07:58.166Z,43.30
2018-07-19T15:10:25.940Z,43.60
2018-07-19T15:12:53.687Z,43.60
2018-07-19T15:15:21.448Z,43.10
2018-07-19T15:17:49.137Z,42.60
2018-07-19T15:20:16.875Z,41.80
2018-07-19T15:22:44.924Z,42.00
2018-07-19T15:25:12.738Z,42.40
2018-07-19T15:27:40.483Z,42.50
2018-07-19T15:35:04.311Z,43.00
2018-07-19T15:37:32.076Z,42.80
2018-07-19T15:39:59.760Z,42.80
2018-07-19T15:42:27.493Z,42.30
2018-07-19T15:44:55.261Z,42.50
2018-07-19T15:47:22.960Z,42.30
2018-07-19T15:49:50.757Z,42.20
2018-07-19T15:52:18.599Z,42.20
2018-07-19T15:54:46.398Z,42.40
2018-07-19T15:57:14.114Z,42.30
2018-07-19T15:59:41.836Z,42.30
2018-07-19T16:02:09.544Z,42.20
2018-07-19T16:04:37.272Z,42.20
2018-07-19T16:07:05.057Z,41.70
2018-07-19T16:09:32.899Z,41.80
2018-07-19T16:12:00.615Z,42.00
2018-07-19T16:14:28.322Z,41.80
2018-07-19T16:19:23.807Z,41.70
2018-07-19T16:21:51.528Z,42.10
2018-07-19T16:24:19.239Z,41.50
2018-07-19T16:26:46.987Z,41.30
2018-07-19T16:29:14.781Z,40.70
2018-07-19T16:31:42.512Z,41.10
2018-07-19T16:34:10.229Z,41.10
2018-07-19T16:36:37.902Z,41.00
2018-07-19T16:39:08.079Z,40.80
2018-07-19T16:41:36.100Z,40.70
2018-07-19T16:44:03.810Z,40.60
2018-07-19T16:46:31.601Z,40.50
2018-07-19T16:48:59.375Z,40.40
2018-07-19T16:51:27.077Z,40.20
2018-07-19T16:53:54.768Z,40.00
2018-07-19T16:56:22.487Z,39.90
2018-07-19T16:58:50.192Z,39.30
2018-07-19T17:01:18.226Z,39.00
2018-07-19T17:03:46.249Z,38.90
2018-07-19T17:06:14.983Z,38.80
2018-07-19T17:08:42.791Z,38.60
2018-07-19T17:11:10.641Z,38.50
2018-07-19T17:13:38.538Z,38.50
2018-07-19T17:16:06.497Z,38.20
2018-07-19T17:18:35.016Z,38.10
2018-07-19T17:21:02.903Z,37.90
2018-07-19T17:23:30.903Z,37.80
2018-07-19T17:25:59.691Z,37.60
2018-07-19T17:28:27.470Z,37.60
2018-07-19T17:30:55.188Z,37.60
2018-07-19T17:35:50.949Z,37.40
2018-07-19T17:38:18.648Z,37.40
2018-07-19T17:40:46.453Z,37.40
2018-07-19T17:43:14.149Z,37.50
2018-07-19T17:45:41.890Z,37.50
2018-07-19T17:48:09.565Z,37.50
2018-07-19T17:50:37.384Z,37.40
2018-07-19T17:57:40.190Z,37.30
2018-07-19T18:00:07.986Z,37.10
2018-07-19T18:02:35.721Z,39.60
2018-07-19T18:05:03.603Z,36.90
2018-07-19T18:07:31.329Z,36.90
2018-07-19T18:09:59.049Z,36.60
2018-07-19T18:12:26.800Z,36.50
2018-07-19T18:14:54.558Z,36.50
2018-07-19T18:17:22.350Z,36.40
2018-07-19T18:19:50.085Z,36.30
2018-07-19T18:22:17.821Z,36.10
2018-07-19T18:24:45.594Z,36.10
2018-07-19T18:27:13.358Z,35.90
2018-07-19T18:29:41.069Z,35.70
2018-07-19T18:32:08.779Z,35.70
2018-07-19T18:34:36.500Z,35.80
2018-07-19T18:37:04.247Z,35.60
2018-07-19T18:39:31.957Z,35.60
2018-07-19T18:41:59.711Z,35.60
2018-07-19T18:44:27.418Z,35.50
2018-07-19T18:46:55.106Z,35.30
2018-07-19T18:49:22.817Z,35.20
2018-07-19T18:51:50.575Z,35.20
2018-07-19T18:54:18.331Z,35.10
2018-07-19T18:56:46.025Z,34.90
2018-07-19T18:59:13.708Z,34.80
2018-07-19T19:01:41.405Z,34.70
2018-07-19T19:04:09.133Z,34.60
2018-07-19T19:06:37.079Z,34.50
2018-07-19T19:09:08.207Z,35.60
2018-07-19T19:11:35.931Z,34.10
2018-07-19T19:14:04.157Z,34.20
2018-07-19T19:16:31.878Z,33.80
2018-07-19T19:18:59.843Z,33.90
2018-07-19T19:21:27.669Z,33.80
2018-07-19T19:23:55.705Z,33.80
2018-07-19T19:26:23.449Z,33.70
2018-07-19T19:28:51.282Z,33.80
2018-07-19T19:31:19.288Z,33.40
2018-07-19T19:33:47.015Z,33.30
2018-07-19T19:36:14.743Z,33.80
2018-07-19T19:38:42.840Z,33.00
2018-07-19T19:41:10.917Z,32.60
2018-07-19T19:43:38.835Z,32.50
2018-07-19T19:46:06.729Z,32.40
2018-07-19T19:48:34.997Z,32.20
2018-07-19T19:53:31.645Z,31.90
2018-07-19T19:55:59.398Z,31.70
2018-07-19T19:58:27.210Z,31.60
2018-07-19T20:03:22.883Z,31.50
2018-07-19T20:05:50.635Z,31.50
2018-07-19T20:08:18.418Z,31.30
2018-07-19T20:10:46.214Z,31.30
2018-07-19T20:13:14.750Z,31.30
2018-07-19T20:15:42.481Z,31.20
2018-07-19T20:18:10.608Z,31.00
2018-07-19T20:20:38.416Z,31.00
2018-07-19T20:23:06.193Z,30.70
2018-07-19T20:25:33.973Z,30.80
2018-07-19T20:30:29.749Z,30.60
2018-07-19T20:32:57.624Z,30.50
2018-07-19T20:35:25.396Z,30.40
2018-07-19T20:37:53.174Z,30.20
2018-07-19T20:40:20.969Z,30.10
2018-07-19T20:42:48.751Z,30.10
2018-07-19T20:45:16.528Z,30.10
2018-07-19T20:47:44.280Z,29.80
2018-07-19T20:50:12.011Z,29.80
2018-07-19T20:52:39.778Z,29.80
2018-07-19T20:55:08.104Z,29.70
2018-07-19T20:57:35.914Z,29.50
2018-07-19T21:00:04.626Z,29.60
2018-07-19T21:02:32.502Z,29.50
2018-07-19T21:05:00.294Z,29.50
2018-07-19T21:07:28.024Z,29.50
2018-07-19T21:09:55.858Z,29.30
2018-07-19T21:12:23.705Z,29.20
2018-07-19T21:14:51.577Z,29.00
2018-07-19T21:17:19.340Z,28.90
2018-07-19T21:19:47.116Z,29.00
2018-07-19T21:22:14.924Z,28.80
2018-07-19T21:27:10.511Z,28.50
2018-07-19T21:29:38.266Z,28.50
2018-07-19T21:32:06.085Z,28.40
2018-07-19T21:34:33.855Z,28.40
2018-07-19T21:37:01.578Z,28.20
2018-07-19T21:39:29.308Z,28.20
2018-07-19T21:41:57.063Z,28.20
2018-07-19T21:44:24.735Z,31.10
2018-07-19T21:46:52.430Z,28.00
2018-07-19T21:49:20.106Z,27.90
2018-07-19T21:51:48.144Z,27.90
2018-07-19T21:54:16.270Z,27.70
2018-07-19T21:56:43.981Z,27.80
2018-07-19T21:59:11.672Z,27.90
2018-07-19T22:01:43.322Z,27.90
2018-07-19T22:04:11.341Z,27.80
2018-07-19T22:06:39.135Z,27.80
2018-07-19T22:09:09.062Z,27.80
2018-07-19T22:11:37.019Z,27.80
2018-07-19T22:14:05.306Z,27.70
2018-07-19T22:16:33.056Z,27.60
2018-07-19T22:19:01.177Z,27.50
2018-07-19T22:21:28.910Z,27.50
2018-07-19T22:23:56.598Z,27.50
2018-07-19T22:26:25.362Z,27.60
2018-07-19T22:28:53.158Z,27.60
2018-07-19T22:31:20.857Z,27.60
2018-07-19T22:33:48.878Z,27.50
2018-07-19T22:36:16.748Z,27.30
2018-07-19T22:38:44.555Z,27.20
2018-07-19T22:41:12.386Z,27.10
2018-07-19T22:43:40.209Z,26.90
2018-07-19T22:46:07.903Z,26.90
2018-07-19T22:48:35.594Z,26.90
2018-07-19T22:51:03.382Z,27.10
2018-07-19T22:53:31.075Z,27.10
2018-07-19T22:55:58.784Z,26.70
2018-07-19T22:58:26.470Z,27.00
2018-07-19T23:00:54.198Z,27.00
2018-07-19T23:03:22.105Z,26.80
2018-07-19T23:05:50.070Z,26.80
2018-07-19T23:08:17.790Z,26.60
2018-07-19T23:10:45.515Z,26.60
2018-07-19T23:13:13.215Z,26.60
2018-07-19T23:15:40.948Z,26.50
2018-07-19T23:18:08.699Z,26.40
2018-07-19T23:20:36.442Z,26.20
2018-07-19T23:23:04.166Z,26.20
2018-07-19T23:25:31.853Z,26.10
2018-07-19T23:27:59.602Z,26.00
2018-07-19T23:30:32.305Z,26.10
2018-07-19T23:33:00.015Z,26.30
2018-07-19T23:35:35.427Z,26.30
2018-07-19T23:38:06.039Z,26.30
2018-07-19T23:40:36.425Z,26.30
2018-07-19T23:43:08.791Z,26.40
2018-07-19T23:46:39.198Z,26.40
2018-07-19T23:49:07.290Z,26.10
2018-07-19T23:51:36.730Z,26.00
2018-07-19T23:54:04.455Z,26.00
2018-07-19T23:56:32.533Z,26.00
2018-07-19T23:59:00.272Z,26.00
